sensor_id;sensor_type;location;lat;lon;timestamp;pressure;altitude;pressure_sealevel;temperature
22828;BMP180;11580;52.562;13.418;2023-11-19T00:02:20;100602.00;;;10.90
22828;BMP180;11580;52.562;13.418;2023-11-19T00:04:48;100578.00;;;10.90
22828;BMP180;11580;52.562;13.418;2023-11-19T00:07:15;100577.00;;;10.90
22828;BMP180;11580;52.562;13.418;2023-11-19T00:09:42;100565.00;;;10.90
22828;BMP180;11580;52.562;13.418;2023-11-19T00:12:09;100564.00;;;10.90
22828;BMP180;11580;52.562;13.418;2023-11-19T00:14:38;100558.00;;;10.80
22828;BMP180;11580;52.562;13.418;2023-11-19T00:17:05;100557.00;;;10.80
22828;BMP180;11580;52.562;13.418;2023-11-19T00:19:32;100547.00;;;10.80
22828;BMP180;11580;52.562;13.418;2023-11-19T00:21:59;100544.00;;;10.80
22828;BMP180;11580;52.562;13.418;2023-11-19T00:24:29;100541.00;;;10.80
22828;BMP180;11580;52.562;13.418;2023-11-19T00:26:56;100536.00;;;10.80
22828;BMP180;11580;52.562;13.418;2023-11-19T00:29:23;100524.00;;;10.70
22828;BMP180;11580;52.562;13.418;2023-11-19T00:31:52;100529.00;;;10.70
22828;BMP180;11580;52.562;13.418;2023-11-19T00:34:19;100507.00;;;10.70
22828;BMP180;11580;52.562;13.418;2023-11-19T00:36:48;100518.00;;;10.70
22828;BMP180;11580;52.562;13.418;2023-11-19T00:39:15;100515.00;;;10.70
22828;BMP180;11580;52.562;13.418;2023-11-19T00:41:43;100507.00;;;10.70
22828;BMP180;11580;52.562;13.418;2023-11-19T00:44:12;100493.00;;;10.70
22828;BMP180;11580;52.562;13.418;2023-11-19T00:46:39;100489.00;;;10.70
22828;BMP180;11580;52.562;13.418;2023-11-19T00:49:08;100471.00;;;10.70
22828;BMP180;11580;52.562;13.418;2023-11-19T00:51:37;100471.00;;;10.70
22828;BMP180;11580;52.562;13.418;2023-11-19T00:54:05;100457.00;;;10.70
22828;BMP180;11580;52.562;13.418;2023-11-19T00:56:32;100457.00;;;10.70
22828;BMP180;11580;52.562;13.418;2023-11-19T00:58:59;100458.00;;;10.70
22828;BMP180;11580;52.562;13.418;2023-11-19T01:01:27;100450.00;;;10.70
22828;BMP180;11580;52.562;13.418;2023-11-19T01:03:54;100440.00;;;10.70
22828;BMP180;11580;52.562;13.418;2023-11-19T01:06:31;100430.00;;;10.70
22828;BMP180;11580;52.562;13.418;2023-11-19T01:08:58;100420.00;;;10.70
22828;BMP180;11580;52.562;13.418;2023-11-19T01:11:26;100414.00;;;10.70
22828;BMP180;11580;52.562;13.418;2023-11-19T01:13:54;100411.00;;;10.70
22828;BMP180;11580;52.562;13.418;2023-11-19T01:16:21;100387.00;;;10.70
22828;BMP180;11580;52.562;13.418;2023-11-19T01:18:49;100377.00;;;10.80
22828;BMP180;11580;52.562;13.418;2023-11-19T01:21:16;100368.00;;;10.80
22828;BMP180;11580;52.562;13.418;2023-11-19T01:23:45;100369.00;;;10.80
22828;BMP180;11580;52.562;13.418;2023-11-19T01:26:12;100359.00;;;10.80
22828;BMP180;11580;52.562;13.418;2023-11-19T01:28:40;100358.00;;;10.80
22828;BMP180;11580;52.562;13.418;2023-11-19T01:31:08;100365.00;;;10.80
22828;BMP180;11580;52.562;13.418;2023-11-19T01:33:36;100359.00;;;10.80
22828;BMP180;11580;52.562;13.418;2023-11-19T01:36:05;100353.00;;;10.80
22828;BMP180;11580;52.562;13.418;2023-11-19T01:38:32;100346.00;;;10.80
22828;BMP180;11580;52.562;13.418;2023-11-19T01:41:01;100346.00;;;10.80
22828;BMP180;11580;52.562;13.418;2023-11-19T01:43:34;100334.00;;;10.80
22828;BMP180;11580;52.562;13.418;2023-11-19T01:46:00;100310.00;;;10.80
22828;BMP180;11580;52.562;13.418;2023-11-19T01:48:28;100289.00;;;10.80
22828;BMP180;11580;52.562;13.418;2023-11-19T01:50:56;100304.00;;;10.90
22828;BMP180;11580;52.562;13.418;2023-11-19T01:53:25;100292.00;;;10.90
22828;BMP180;11580;52.562;13.418;2023-11-19T01:55:53;100278.00;;;10.90
22828;BMP180;11580;52.562;13.418;2023-11-19T01:58:23;100275.00;;;10.90
22828;BMP180;11580;52.562;13.418;2023-11-19T02:00:50;100271.00;;;10.90
22828;BMP180;11580;52.562;13.418;2023-11-19T02:03:18;100263.00;;;10.90
22828;BMP180;11580;52.562;13.418;2023-11-19T02:05:49;100264.00;;;11.00
22828;BMP180;11580;52.562;13.418;2023-11-19T02:08:17;100255.00;;;11.00
22828;BMP180;11580;52.562;13.418;2023-11-19T02:10:45;100236.00;;;10.90
22828;BMP180;11580;52.562;13.418;2023-11-19T02:13:12;100220.00;;;10.90
22828;BMP180;11580;52.562;13.418;2023-11-19T02:15:42;100206.00;;;10.80
22828;BMP180;11580;52.562;13.418;2023-11-19T02:18:24;100193.00;;;11.00
22828;BMP180;11580;52.562;13.418;2023-11-19T02:20:54;100198.00;;;10.90
22828;BMP180;11580;52.562;13.418;2023-11-19T02:23:22;100188.00;;;10.90
22828;BMP180;11580;52.562;13.418;2023-11-19T02:26:10;100188.00;;;10.90
22828;BMP180;11580;52.562;13.418;2023-11-19T02:28:42;100182.00;;;10.90
22828;BMP180;11580;52.562;13.418;2023-11-19T02:31:09;100190.00;;;10.90
22828;BMP180;11580;52.562;13.418;2023-11-19T02:33:37;100170.00;;;10.90
22828;BMP180;11580;52.562;13.418;2023-11-19T02:36:06;100167.00;;;10.90
22828;BMP180;11580;52.562;13.418;2023-11-19T02:38:34;100157.00;;;10.90
22828;BMP180;11580;52.562;13.418;2023-11-19T02:41:04;100159.00;;;10.90
22828;BMP180;11580;52.562;13.418;2023-11-19T02:43:32;100140.00;;;11.00
22828;BMP180;11580;52.562;13.418;2023-11-19T02:46:03;100136.00;;;11.00
22828;BMP180;11580;52.562;13.418;2023-11-19T02:48:32;100133.00;;;11.00
22828;BMP180;11580;52.562;13.418;2023-11-19T02:51:01;100130.00;;;11.00
22828;BMP180;11580;52.562;13.418;2023-11-19T02:53:29;100118.00;;;11.00
22828;BMP180;11580;52.562;13.418;2023-11-19T02:55:56;100120.00;;;11.00
22828;BMP180;11580;52.562;13.418;2023-11-19T02:58:28;100099.00;;;11.00
22828;BMP180;11580;52.562;13.418;2023-11-19T03:00:56;100096.00;;;11.00
22828;BMP180;11580;52.562;13.418;2023-11-19T03:03:28;100083.00;;;11.00
22828;BMP180;11580;52.562;13.418;2023-11-19T03:06:04;100080.00;;;11.00
22828;BMP180;11580;52.562;13.418;2023-11-19T03:08:32;100081.00;;;11.00
22828;BMP180;11580;52.562;13.418;2023-11-19T03:10:59;100068.00;;;11.10
22828;BMP180;11580;52.562;13.418;2023-11-19T03:13:26;100086.00;;;11.10
22828;BMP180;11580;52.562;13.418;2023-11-19T03:15:53;100097.00;;;11.10
22828;BMP180;11580;52.562;13.418;2023-11-19T03:18:21;100101.00;;;11.10
22828;BMP180;11580;52.562;13.418;2023-11-19T03:20:49;100098.00;;;11.10
22828;BMP180;11580;52.562;13.418;2023-11-19T03:23:18;100096.00;;;11.10
22828;BMP180;11580;52.562;13.418;2023-11-19T03:25:45;100099.00;;;11.10
22828;BMP180;11580;52.562;13.418;2023-11-19T03:28:12;100105.00;;;11.10
22828;BMP180;11580;52.562;13.418;2023-11-19T03:30:40;100093.00;;;11.10
22828;BMP180;11580;52.562;13.418;2023-11-19T03:33:07;100087.00;;;11.10
22828;BMP180;11580;52.562;13.418;2023-11-19T03:35:35;100056.00;;;11.10
22828;BMP180;11580;52.562;13.418;2023-11-19T03:38:03;100038.00;;;11.10
22828;BMP180;11580;52.562;13.418;2023-11-19T03:40:30;100042.00;;;11.10
22828;BMP180;11580;52.562;13.418;2023-11-19T03:42:57;100022.00;;;11.10
22828;BMP180;11580;52.562;13.418;2023-11-19T03:45:25;100027.00;;;11.10
22828;BMP180;11580;52.562;13.418;2023-11-19T03:47:52;100024.00;;;11.10
22828;BMP180;11580;52.562;13.418;2023-11-19T03:50:19;100015.00;;;11.00
22828;BMP180;11580;52.562;13.418;2023-11-19T03:52:47;100013.00;;;11.00
22828;BMP180;11580;52.562;13.418;2023-11-19T03:55:15;99986.00;;;11.00
22828;BMP180;11580;52.562;13.418;2023-11-19T03:57:42;99978.00;;;10.90
22828;BMP180;11580;52.562;13.418;2023-11-19T04:00:10;99983.00;;;10.90
22828;BMP180;11580;52.562;13.418;2023-11-19T04:02:40;99982.00;;;10.90
22828;BMP180;11580;52.562;13.418;2023-11-19T04:05:08;99968.00;;;10.80
22828;BMP180;11580;52.562;13.418;2023-11-19T04:07:35;99969.00;;;10.80
22828;BMP180;11580;52.562;13.418;2023-11-19T04:10:02;99963.00;;;10.80
22828;BMP180;11580;52.562;13.418;2023-11-19T04:12:31;99946.00;;;10.70
22828;BMP180;11580;52.562;13.418;2023-11-19T04:14:58;99938.00;;;10.70
22828;BMP180;11580;52.562;13.418;2023-11-19T04:17:26;99933.00;;;10.70
22828;BMP180;11580;52.562;13.418;2023-11-19T04:19:53;99928.00;;;10.70
22828;BMP180;11580;52.562;13.418;2023-11-19T04:22:21;99913.00;;;10.70
22828;BMP180;11580;52.562;13.418;2023-11-19T04:24:48;99912.00;;;10.60
22828;BMP180;11580;52.562;13.418;2023-11-19T04:27:15;99907.00;;;10.60
22828;BMP180;11580;52.562;13.418;2023-11-19T04:29:44;99914.00;;;10.60
22828;BMP180;11580;52.562;13.418;2023-11-19T04:32:12;99918.00;;;10.60
22828;BMP180;11580;52.562;13.418;2023-11-19T04:34:40;99907.00;;;10.60
22828;BMP180;11580;52.562;13.418;2023-11-19T04:37:07;99903.00;;;10.60
22828;BMP180;11580;52.562;13.418;2023-11-19T04:39:35;99907.00;;;10.60
22828;BMP180;11580;52.562;13.418;2023-11-19T04:42:03;99904.00;;;10.60
22828;BMP180;11580;52.562;13.418;2023-11-19T04:44:32;99907.00;;;10.60
22828;BMP180;11580;52.562;13.418;2023-11-19T04:47:00;99916.00;;;10.60
22828;BMP180;11580;52.562;13.418;2023-11-19T04:49:28;99903.00;;;10.60
22828;BMP180;11580;52.562;13.418;2023-11-19T04:51:56;99894.00;;;10.50
22828;BMP180;11580;52.562;13.418;2023-11-19T04:54:23;99890.00;;;10.50
22828;BMP180;11580;52.562;13.418;2023-11-19T04:56:51;99878.00;;;10.50
22828;BMP180;11580;52.562;13.418;2023-11-19T04:59:18;99884.00;;;10.50
22828;BMP180;11580;52.562;13.418;2023-11-19T05:01:47;99871.00;;;10.40
22828;BMP180;11580;52.562;13.418;2023-11-19T05:04:16;99854.00;;;10.40
22828;BMP180;11580;52.562;13.418;2023-11-19T05:06:44;99848.00;;;10.40
22828;BMP180;11580;52.562;13.418;2023-11-19T05:09:11;99847.00;;;10.40
22828;BMP180;11580;52.562;13.418;2023-11-19T05:11:39;99835.00;;;10.40
22828;BMP180;11580;52.562;13.418;2023-11-19T05:14:07;99820.00;;;10.40
22828;BMP180;11580;52.562;13.418;2023-11-19T05:16:35;99817.00;;;10.40
22828;BMP180;11580;52.562;13.418;2023-11-19T05:19:02;99800.00;;;10.30
22828;BMP180;11580;52.562;13.418;2023-11-19T05:21:31;99789.00;;;10.40
22828;BMP180;11580;52.562;13.418;2023-11-19T05:23:58;99776.00;;;10.40
22828;BMP180;11580;52.562;13.418;2023-11-19T05:26:26;99787.00;;;10.40
22828;BMP180;11580;52.562;13.418;2023-11-19T05:28:53;99788.00;;;10.40
22828;BMP180;11580;52.562;13.418;2023-11-19T05:31:20;99786.00;;;10.40
22828;BMP180;11580;52.562;13.418;2023-11-19T05:33:47;99783.00;;;10.30
22828;BMP180;11580;52.562;13.418;2023-11-19T05:36:15;99759.00;;;10.30
22828;BMP180;11580;52.562;13.418;2023-11-19T05:38:43;99772.00;;;10.30
22828;BMP180;11580;52.562;13.418;2023-11-19T05:41:11;99773.00;;;10.30
22828;BMP180;11580;52.562;13.418;2023-11-19T05:43:38;99760.00;;;10.30
22828;BMP180;11580;52.562;13.418;2023-11-19T05:46:07;99759.00;;;10.30
22828;BMP180;11580;52.562;13.418;2023-11-19T05:48:34;99751.00;;;10.30
22828;BMP180;11580;52.562;13.418;2023-11-19T05:51:02;99750.00;;;10.30
22828;BMP180;11580;52.562;13.418;2023-11-19T05:53:29;99728.00;;;10.30
22828;BMP180;11580;52.562;13.418;2023-11-19T05:55:58;99738.00;;;10.30
22828;BMP180;11580;52.562;13.418;2023-11-19T05:58:30;99735.00;;;10.30
22828;BMP180;11580;52.562;13.418;2023-11-19T06:00:58;99721.00;;;10.30
22828;BMP180;11580;52.562;13.418;2023-11-19T06:03:28;99719.00;;;10.30
22828;BMP180;11580;52.562;13.418;2023-11-19T06:05:55;99718.00;;;10.30
22828;BMP180;11580;52.562;13.418;2023-11-19T06:08:22;99722.00;;;10.40
22828;BMP180;11580;52.562;13.418;2023-11-19T06:10:50;99712.00;;;10.30
22828;BMP180;11580;52.562;13.418;2023-11-19T06:13:18;99720.00;;;10.40
22828;BMP180;11580;52.562;13.418;2023-11-19T06:15:45;99725.00;;;10.40
22828;BMP180;11580;52.562;13.418;2023-11-19T06:18:13;99708.00;;;10.40
22828;BMP180;11580;52.562;13.418;2023-11-19T06:20:41;99715.00;;;10.30
22828;BMP180;11580;52.562;13.418;2023-11-19T06:23:08;99698.00;;;10.40
22828;BMP180;11580;52.562;13.418;2023-11-19T06:25:35;99696.00;;;10.40
22828;BMP180;11580;52.562;13.418;2023-11-19T06:28:03;99698.00;;;10.40
22828;BMP180;11580;52.562;13.418;2023-11-19T06:30:32;99683.00;;;10.40
22828;BMP180;11580;52.562;13.418;2023-11-19T06:32:59;99686.00;;;10.40
22828;BMP180;11580;52.562;13.418;2023-11-19T06:35:26;99673.00;;;10.40
22828;BMP180;11580;52.562;13.418;2023-11-19T06:37:55;99667.00;;;10.50
22828;BMP180;11580;52.562;13.418;2023-11-19T06:40:22;99665.00;;;10.50
22828;BMP180;11580;52.562;13.418;2023-11-19T06:42:51;99688.00;;;10.50
22828;BMP180;11580;52.562;13.418;2023-11-19T06:45:18;99683.00;;;10.60
22828;BMP180;11580;52.562;13.418;2023-11-19T06:47:47;99670.00;;;10.60
22828;BMP180;11580;52.562;13.418;2023-11-19T06:50:15;99679.00;;;10.60
22828;BMP180;11580;52.562;13.418;2023-11-19T06:52:43;99681.00;;;10.60
22828;BMP180;11580;52.562;13.418;2023-11-19T06:55:11;99659.00;;;10.60
22828;BMP180;11580;52.562;13.418;2023-11-19T06:57:38;99658.00;;;10.60
22828;BMP180;11580;52.562;13.418;2023-11-19T07:00:07;99658.00;;;10.70
22828;BMP180;11580;52.562;13.418;2023-11-19T07:02:35;99642.00;;;10.70
22828;BMP180;11580;52.562;13.418;2023-11-19T07:05:04;99654.00;;;10.70
22828;BMP180;11580;52.562;13.418;2023-11-19T07:07:31;99653.00;;;10.70
22828;BMP180;11580;52.562;13.418;2023-11-19T07:09:59;99648.00;;;10.70
22828;BMP180;11580;52.562;13.418;2023-11-19T07:12:26;99642.00;;;10.80
22828;BMP180;11580;52.562;13.418;2023-11-19T07:14:53;99666.00;;;10.80
22828;BMP180;11580;52.562;13.418;2023-11-19T07:17:21;99676.00;;;10.80
22828;BMP180;11580;52.562;13.418;2023-11-19T07:19:50;99677.00;;;10.80
22828;BMP180;11580;52.562;13.418;2023-11-19T07:22:19;99654.00;;;10.90
22828;BMP180;11580;52.562;13.418;2023-11-19T07:24:46;99659.00;;;10.90
22828;BMP180;11580;52.562;13.418;2023-11-19T07:27:13;99664.00;;;10.90
22828;BMP180;11580;52.562;13.418;2023-11-19T07:29:43;99633.00;;;10.90
22828;BMP180;11580;52.562;13.418;2023-11-19T07:32:11;99652.00;;;10.90
22828;BMP180;11580;52.562;13.418;2023-11-19T07:34:39;99651.00;;;11.00
22828;BMP180;11580;52.562;13.418;2023-11-19T07:37:06;99648.00;;;11.00
22828;BMP180;11580;52.562;13.418;2023-11-19T07:39:35;99644.00;;;11.00
22828;BMP180;11580;52.562;13.418;2023-11-19T07:42:04;99665.00;;;11.00
22828;BMP180;11580;52.562;13.418;2023-11-19T07:44:31;99667.00;;;11.10
22828;BMP180;11580;52.562;13.418;2023-11-19T07:46:58;99668.00;;;11.10
22828;BMP180;11580;52.562;13.418;2023-11-19T07:49:25;99664.00;;;11.20
22828;BMP180;11580;52.562;13.418;2023-11-19T07:51:52;99663.00;;;11.20
22828;BMP180;11580;52.562;13.418;2023-11-19T07:54:20;99660.00;;;11.30
22828;BMP180;11580;52.562;13.418;2023-11-19T07:56:49;99652.00;;;11.30
22828;BMP180;11580;52.562;13.418;2023-11-19T07:59:16;99652.00;;;11.40
22828;BMP180;11580;52.562;13.418;2023-11-19T08:01:43;99673.00;;;11.40
22828;BMP180;11580;52.562;13.418;2023-11-19T08:04:11;99650.00;;;11.40
22828;BMP180;11580;52.562;13.418;2023-11-19T08:06:38;99664.00;;;11.50
22828;BMP180;11580;52.562;13.418;2023-11-19T08:09:05;99645.00;;;11.50
22828;BMP180;11580;52.562;13.418;2023-11-19T08:11:37;99655.00;;;11.60
22828;BMP180;11580;52.562;13.418;2023-11-19T08:14:06;99662.00;;;11.70
22828;BMP180;11580;52.562;13.418;2023-11-19T08:16:34;99666.00;;;11.70
22828;BMP180;11580;52.562;13.418;2023-11-19T08:19:02;99657.00;;;11.80
22828;BMP180;11580;52.562;13.418;2023-11-19T08:21:29;99656.00;;;11.80
22828;BMP180;11580;52.562;13.418;2023-11-19T08:23:56;99643.00;;;11.80
22828;BMP180;11580;52.562;13.418;2023-11-19T08:26:24;99656.00;;;11.90
22828;BMP180;11580;52.562;13.418;2023-11-19T08:28:51;99644.00;;;11.90
22828;BMP180;11580;52.562;13.418;2023-11-19T08:31:20;99634.00;;;12.00
22828;BMP180;11580;52.562;13.418;2023-11-19T08:33:47;99641.00;;;12.00
22828;BMP180;11580;52.562;13.418;2023-11-19T08:36:19;99645.00;;;12.10
22828;BMP180;11580;52.562;13.418;2023-11-19T08:38:46;99619.00;;;12.20
22828;BMP180;11580;52.562;13.418;2023-11-19T08:41:15;99636.00;;;12.20
22828;BMP180;11580;52.562;13.418;2023-11-19T08:43:43;99617.00;;;12.30
22828;BMP180;11580;52.562;13.418;2023-11-19T08:46:11;99633.00;;;12.30
22828;BMP180;11580;52.562;13.418;2023-11-19T08:48:39;99651.00;;;12.40
22828;BMP180;11580;52.562;13.418;2023-11-19T08:51:07;99618.00;;;12.40
22828;BMP180;11580;52.562;13.418;2023-11-19T08:53:34;99618.00;;;12.50
22828;BMP180;11580;52.562;13.418;2023-11-19T08:56:01;99603.00;;;12.60
22828;BMP180;11580;52.562;13.418;2023-11-19T08:58:29;99609.00;;;12.80
22828;BMP180;11580;52.562;13.418;2023-11-19T09:00:56;99635.00;;;12.90
22828;BMP180;11580;52.562;13.418;2023-11-19T09:03:24;99628.00;;;13.00
22828;BMP180;11580;52.562;13.418;2023-11-19T09:05:53;99629.00;;;13.10
22828;BMP180;11580;52.562;13.418;2023-11-19T09:08:20;99631.00;;;13.20
22828;BMP180;11580;52.562;13.418;2023-11-19T09:10:48;99627.00;;;13.30
22828;BMP180;11580;52.562;13.418;2023-11-19T09:13:15;99645.00;;;13.30
22828;BMP180;11580;52.562;13.418;2023-11-19T09:15:42;99643.00;;;13.40
22828;BMP180;11580;52.562;13.418;2023-11-19T09:18:09;99648.00;;;13.40
22828;BMP180;11580;52.562;13.418;2023-11-19T09:20:36;99642.00;;;13.40
22828;BMP180;11580;52.562;13.418;2023-11-19T09:23:06;99620.00;;;13.50
22828;BMP180;11580;52.562;13.418;2023-11-19T09:25:34;99650.00;;;13.60
22828;BMP180;11580;52.562;13.418;2023-11-19T09:28:02;99656.00;;;13.60
22828;BMP180;11580;52.562;13.418;2023-11-19T09:30:29;99653.00;;;13.70
22828;BMP180;11580;52.562;13.418;2023-11-19T09:32:59;99650.00;;;13.80
22828;BMP180;11580;52.562;13.418;2023-11-19T09:35:26;99643.00;;;13.80
22828;BMP180;11580;52.562;13.418;2023-11-19T09:37:52;99641.00;;;14.00
22828;BMP180;11580;52.562;13.418;2023-11-19T09:40:21;99639.00;;;14.10
22828;BMP180;11580;52.562;13.418;2023-11-19T09:42:48;99631.00;;;14.20
22828;BMP180;11580;52.562;13.418;2023-11-19T09:45:17;99611.00;;;14.30
22828;BMP180;11580;52.562;13.418;2023-11-19T09:47:45;99636.00;;;14.40
22828;BMP180;11580;52.562;13.418;2023-11-19T09:50:17;99632.00;;;14.50
22828;BMP180;11580;52.562;13.418;2023-11-19T09:52:45;99635.00;;;14.70
22828;BMP180;11580;52.562;13.418;2023-11-19T09:55:13;99619.00;;;14.80
22828;BMP180;11580;52.562;13.418;2023-11-19T09:57:43;99620.00;;;15.00
22828;BMP180;11580;52.562;13.418;2023-11-19T10:00:14;99623.00;;;15.10
22828;BMP180;11580;52.562;13.418;2023-11-19T10:02:43;99634.00;;;15.20
22828;BMP180;11580;52.562;13.418;2023-11-19T10:05:12;99628.00;;;15.20
22828;BMP180;11580;52.562;13.418;2023-11-19T10:07:40;99623.00;;;15.20
22828;BMP180;11580;52.562;13.418;2023-11-19T10:10:09;99632.00;;;15.30
22828;BMP180;11580;52.562;13.418;2023-11-19T10:12:40;99633.00;;;15.30
22828;BMP180;11580;52.562;13.418;2023-11-19T10:15:21;99625.00;;;15.40
22828;BMP180;11580;52.562;13.418;2023-11-19T10:17:48;99624.00;;;15.50
22828;BMP180;11580;52.562;13.418;2023-11-19T10:20:15;99618.00;;;15.60
22828;BMP180;11580;52.562;13.418;2023-11-19T10:22:43;99627.00;;;15.60
22828;BMP180;11580;52.562;13.418;2023-11-19T10:25:23;99616.00;;;15.70
22828;BMP180;11580;52.562;13.418;2023-11-19T10:27:51;99617.00;;;15.70
22828;BMP180;11580;52.562;13.418;2023-11-19T10:30:21;99620.00;;;15.70
22828;BMP180;11580;52.562;13.418;2023-11-19T10:33:04;99617.00;;;15.70
22828;BMP180;11580;52.562;13.418;2023-11-19T10:35:32;99605.00;;;15.80
22828;BMP180;11580;52.562;13.418;2023-11-19T10:38:00;99589.00;;;15.80
22828;BMP180;11580;52.562;13.418;2023-11-19T10:40:38;99599.00;;;15.90
22828;BMP180;11580;52.562;13.418;2023-11-19T10:43:07;99590.00;;;15.90
22828;BMP180;11580;52.562;13.418;2023-11-19T10:45:36;99578.00;;;15.90
22828;BMP180;11580;52.562;13.418;2023-11-19T10:48:06;99593.00;;;15.90
22828;BMP180;11580;52.562;13.418;2023-11-19T10:50:34;99590.00;;;16.00
22828;BMP180;11580;52.562;13.418;2023-11-19T10:53:03;99568.00;;;16.00
22828;BMP180;11580;52.562;13.418;2023-11-19T10:55:32;99591.00;;;16.00
22828;BMP180;11580;52.562;13.418;2023-11-19T10:58:03;99594.00;;;16.10
22828;BMP180;11580;52.562;13.418;2023-11-19T11:00:38;99590.00;;;16.10
22828;BMP180;11580;52.562;13.418;2023-11-19T11:03:16;99576.00;;;16.20
22828;BMP180;11580;52.562;13.418;2023-11-19T11:05:47;99594.00;;;16.20
22828;BMP180;11580;52.562;13.418;2023-11-19T11:08:15;99592.00;;;16.10
22828;BMP180;11580;52.562;13.418;2023-11-19T11:10:45;99592.00;;;16.30
22828;BMP180;11580;52.562;13.418;2023-11-19T11:13:14;99593.00;;;16.40
22828;BMP180;11580;52.562;13.418;2023-11-19T11:15:43;99590.00;;;16.50
22828;BMP180;11580;52.562;13.418;2023-11-19T11:18:13;99577.00;;;16.50
22828;BMP180;11580;52.562;13.418;2023-11-19T11:20:43;99582.00;;;16.60
22828;BMP180;11580;52.562;13.418;2023-11-19T11:23:47;99588.00;;;16.60
22828;BMP180;11580;52.562;13.418;2023-11-19T11:26:40;99596.00;;;16.60
22828;BMP180;11580;52.562;13.418;2023-11-19T11:29:20;99585.00;;;16.70
22828;BMP180;11580;52.562;13.418;2023-11-19T11:32:04;99584.00;;;16.80
22828;BMP180;11580;52.562;13.418;2023-11-19T11:34:56;99597.00;;;16.80
22828;BMP180;11580;52.562;13.418;2023-11-19T11:37:33;99562.00;;;16.90
22828;BMP180;11580;52.562;13.418;2023-11-19T11:40:02;99590.00;;;16.90
22828;BMP180;11580;52.562;13.418;2023-11-19T11:42:36;99588.00;;;17.00
22828;BMP180;11580;52.562;13.418;2023-11-19T11:45:06;99590.00;;;17.00
22828;BMP180;11580;52.562;13.418;2023-11-19T11:48:09;99597.00;;;17.10
22828;BMP180;11580;52.562;13.418;2023-11-19T11:50:57;99601.00;;;17.20
22828;BMP180;11580;52.562;13.418;2023-11-19T11:53:26;99600.00;;;17.30
22828;BMP180;11580;52.562;13.418;2023-11-19T11:55:58;99595.00;;;17.40
22828;BMP180;11580;52.562;13.418;2023-11-19T11:58:32;99599.00;;;17.50
22828;BMP180;11580;52.562;13.418;2023-11-19T12:01:04;99583.00;;;17.60
22828;BMP180;11580;52.562;13.418;2023-11-19T12:03:34;99596.00;;;17.60
22828;BMP180;11580;52.562;13.418;2023-11-19T12:06:01;99584.00;;;17.70
22828;BMP180;11580;52.562;13.418;2023-11-19T12:08:29;99589.00;;;17.70
22828;BMP180;11580;52.562;13.418;2023-11-19T12:10:58;99589.00;;;17.70
22828;BMP180;11580;52.562;13.418;2023-11-19T12:13:53;99596.00;;;17.80
22828;BMP180;11580;52.562;13.418;2023-11-19T12:16:24;99583.00;;;17.80
22828;BMP180;11580;52.562;13.418;2023-11-19T12:18:56;99595.00;;;17.80
22828;BMP180;11580;52.562;13.418;2023-11-19T12:21:30;99590.00;;;17.80
22828;BMP180;11580;52.562;13.418;2023-11-19T12:23:59;99587.00;;;17.70
22828;BMP180;11580;52.562;13.418;2023-11-19T12:26:40;99574.00;;;17.70
22828;BMP180;11580;52.562;13.418;2023-11-19T12:29:07;99603.00;;;17.70
22828;BMP180;11580;52.562;13.418;2023-11-19T12:31:34;99600.00;;;17.70
22828;BMP180;11580;52.562;13.418;2023-11-19T12:34:11;99589.00;;;17.70
22828;BMP180;11580;52.562;13.418;2023-11-19T12:36:40;99590.00;;;17.70
22828;BMP180;11580;52.562;13.418;2023-11-19T12:39:10;99585.00;;;17.70
22828;BMP180;11580;52.562;13.418;2023-11-19T12:41:53;99577.00;;;17.70
22828;BMP180;11580;52.562;13.418;2023-11-19T12:44:22;99583.00;;;17.60
22828;BMP180;11580;52.562;13.418;2023-11-19T12:47:03;99589.00;;;17.60
22828;BMP180;11580;52.562;13.418;2023-11-19T12:49:32;99587.00;;;17.50
22828;BMP180;11580;52.562;13.418;2023-11-19T12:51:59;99608.00;;;17.40
22828;BMP180;11580;52.562;13.418;2023-11-19T12:54:35;99601.00;;;17.40
22828;BMP180;11580;52.562;13.418;2023-11-19T12:57:03;99610.00;;;17.30
22828;BMP180;11580;52.562;13.418;2023-11-19T12:59:32;99603.00;;;17.30
22828;BMP180;11580;52.562;13.418;2023-11-19T13:01:59;99602.00;;;17.20
22828;BMP180;11580;52.562;13.418;2023-11-19T13:04:31;99598.00;;;17.20
22828;BMP180;11580;52.562;13.418;2023-11-19T13:06:58;99587.00;;;17.20
22828;BMP180;11580;52.562;13.418;2023-11-19T13:09:27;99586.00;;;17.10
22828;BMP180;11580;52.562;13.418;2023-11-19T13:11:56;99583.00;;;17.10
22828;BMP180;11580;52.562;13.418;2023-11-19T13:14:36;99586.00;;;17.00
22828;BMP180;11580;52.562;13.418;2023-11-19T13:17:03;99578.00;;;16.90
22828;BMP180;11580;52.562;13.418;2023-11-19T13:19:32;99577.00;;;16.90
22828;BMP180;11580;52.562;13.418;2023-11-19T13:22:00;99578.00;;;16.80
22828;BMP180;11580;52.562;13.418;2023-11-19T13:24:27;99583.00;;;16.80
22828;BMP180;11580;52.562;13.418;2023-11-19T13:26:54;99578.00;;;16.70
22828;BMP180;11580;52.562;13.418;2023-11-19T13:29:21;99572.00;;;16.70
22828;BMP180;11580;52.562;13.418;2023-11-19T13:31:48;99579.00;;;16.60
22828;BMP180;11580;52.562;13.418;2023-11-19T13:34:16;99583.00;;;16.50
22828;BMP180;11580;52.562;13.418;2023-11-19T13:36:44;99577.00;;;16.50
22828;BMP180;11580;52.562;13.418;2023-11-19T13:39:12;99583.00;;;16.40
22828;BMP180;11580;52.562;13.418;2023-11-19T13:41:39;99570.00;;;16.40
22828;BMP180;11580;52.562;13.418;2023-11-19T13:44:06;99582.00;;;16.40
22828;BMP180;11580;52.562;13.418;2023-11-19T13:46:33;99579.00;;;16.40
22828;BMP180;11580;52.562;13.418;2023-11-19T13:49:00;99586.00;;;16.40
22828;BMP180;11580;52.562;13.418;2023-11-19T13:51:27;99590.00;;;16.50
22828;BMP180;11580;52.562;13.418;2023-11-19T13:53:56;99580.00;;;16.50
22828;BMP180;11580;52.562;13.418;2023-11-19T13:56:23;99585.00;;;16.50
22828;BMP180;11580;52.562;13.418;2023-11-19T13:58:50;99590.00;;;16.60
22828;BMP180;11580;52.562;13.418;2023-11-19T14:01:19;99583.00;;;16.60
22828;BMP180;11580;52.562;13.418;2023-11-19T14:03:46;99590.00;;;16.60
22828;BMP180;11580;52.562;13.418;2023-11-19T14:06:13;99589.00;;;16.60